createdAt,value
2019-03-28T00:00:09.422Z,0.2
2019-03-28T00:00:21.246Z,0.2
2019-03-28T00:00:33.047Z,0.2
2019-03-28T00:00:44.837Z,0.3
2019-03-28T00:00:56.639Z,0.2
2019-03-28T00:01:08.405Z,0.2
2019-03-28T00:01:20.206Z,0.2
2019-03-28T00:01:31.968Z,0.1
2019-03-28T00:01:43.736Z,0.1
2019-03-28T00:01:55.522Z,0.2
2019-03-28T00:02:07.310Z,0.2
2019-03-28T00:02:19.084Z,0.3
2019-03-28T00:02:30.868Z,0.2
2019-03-28T00:02:42.675Z,0.2
2019-03-28T00:02:54.490Z,0.1
2019-03-28T00:03:06.283Z,0.2
2019-03-28T00:03:18.064Z,0.2
2019-03-28T00:03:29.823Z,0.2
2019-03-28T00:03:41.664Z,0.2
2019-03-28T00:03:53.438Z,0.1
2019-03-28T00:04:05.213Z,0.3
2019-03-28T00:04:17.208Z,0.3
2019-03-28T00:04:28.768Z,0.1
2019-03-28T00:04:40.542Z,0.2
2019-03-28T00:04:52.378Z,0.2
2019-03-28T00:05:04.163Z,0.2
2019-03-28T00:05:15.967Z,0.1
2019-03-28T00:05:27.758Z,0.2
2019-03-28T00:05:39.551Z,0.3
2019-03-28T00:05:51.361Z,0.2
2019-03-28T00:06:03.099Z,0.3
2019-03-28T00:06:14.890Z,0.3
2019-03-28T00:06:26.687Z,0.2
2019-03-28T00:06:38.480Z,0.2
2019-03-28T00:06:50.237Z,0.2
2019-03-28T00:07:02.024Z,0.2
2019-03-28T00:07:14.802Z,0.3
2019-03-28T00:07:27.617Z,0.4
2019-03-28T00:07:39.379Z,0.4
2019-03-28T00:07:51.143Z,0.2
2019-03-28T00:08:03.268Z,0.3
2019-03-28T00:08:15.713Z,0.5
2019-03-28T00:08:28.207Z,0.5
2019-03-28T00:08:39.289Z,0.3
2019-03-28T00:08:51.077Z,0.3
2019-03-28T00:09:02.905Z,0.2
2019-03-28T00:09:14.674Z,0.1
2019-03-28T00:09:26.471Z,0.1
2019-03-28T00:09:38.265Z,0.2
2019-03-28T00:09:50.038Z,0.2
2019-03-28T00:10:02.452Z,0.2
2019-03-28T00:10:13.601Z,0.2
2019-03-28T00:10:25.394Z,0.2
2019-03-28T00:10:37.193Z,0.2
2019-03-28T00:10:48.988Z,0.3
2019-03-28T00:11:00.771Z,0.2
2019-03-28T00:11:12.604Z,0.3
2019-03-28T00:11:24.384Z,0.3
2019-03-28T00:11:36.161Z,0.3
2019-03-28T00:11:47.957Z,0.2
2019-03-28T00:12:00.777Z,0.2
2019-03-28T00:12:12.569Z,0.4
2019-03-28T00:12:24.339Z,0.4
2019-03-28T00:12:36.105Z,0.2
2019-03-28T00:12:47.886Z,0.3
2019-03-28T00:12:59.677Z,0.3
2019-03-28T00:13:11.508Z,0.3
2019-03-28T00:13:23.261Z,0.3
2019-03-28T00:13:35.058Z,0.3
2019-03-28T00:13:46.820Z,0.3
2019-03-28T00:13:58.657Z,0.2
2019-03-28T00:14:10.452Z,0.2
2019-03-28T00:14:22.214Z,0.2
2019-03-28T00:14:33.974Z,0.2
2019-03-28T00:14:45.754Z,0.2
2019-03-28T00:14:57.536Z,0.8
2019-03-28T00:15:09.318Z,0.8
2019-03-28T00:15:21.106Z,0.1
2019-03-28T00:15:33.225Z,0.1
2019-03-28T00:15:44.697Z,0.3
2019-03-28T00:15:56.503Z,0.2
2019-03-28T00:16:08.262Z,0.3
2019-03-28T00:16:20.024Z,0.3
2019-03-28T00:16:31.810Z,0.3
2019-03-28T00:16:43.736Z,0.2
2019-03-28T00:16:55.552Z,0.1
2019-03-28T00:17:07.335Z,0.2
2019-03-28T00:17:19.115Z,0.1
2019-03-28T00:17:30.878Z,0.1
2019-03-28T00:17:42.683Z,0.2
2019-03-28T00:17:54.446Z,0.2
2019-03-28T00:18:06.260Z,0.3
2019-03-28T00:18:18.060Z,0.2
2019-03-28T00:18:29.860Z,0.4
2019-03-28T00:18:41.625Z,0.3
2019-03-28T00:18:53.421Z,0.2
2019-03-28T00:19:05.169Z,0.1
2019-03-28T00:19:16.994Z,0.1
2019-03-28T00:19:28.762Z,0.2
2019-03-28T00:19:40.538Z,0.3
2019-03-28T00:19:52.363Z,0.2
2019-03-28T00:20:04.097Z,0.2
2019-03-28T00:20:16.463Z,0.1
2019-03-28T00:20:27.684Z,0.2
2019-03-28T00:20:39.468Z,0.2
2019-03-28T00:20:51.248Z,0.1
2019-03-28T00:21:03.026Z,0.1
2019-03-28T00:21:14.830Z,0.3
2019-03-28T00:21:26.622Z,0.2
2019-03-28T00:21:38.391Z,0.4
2019-03-28T00:21:50.231Z,0.3
2019-03-28T00:22:05.511Z,0.1
2019-03-28T00:22:14.808Z,0.2
2019-03-28T00:22:26.604Z,0.2
2019-03-28T00:22:38.407Z,0.2
2019-03-28T00:22:50.215Z,0.9
2019-03-28T00:23:02.013Z,0.8
2019-03-28T00:23:13.801Z,1.3
2019-03-28T00:23:25.595Z,1
2019-03-28T00:23:37.378Z,0.5
2019-03-28T00:23:49.158Z,0.4
2019-03-28T00:24:00.943Z,0.4
2019-03-28T00:24:13.716Z,0.2
2019-03-28T00:24:25.491Z,0.2
2019-03-28T00:24:37.305Z,0.2
2019-03-28T00:24:49.120Z,0.3
2019-03-28T00:25:00.901Z,0.2
2019-03-28T00:25:13.054Z,0.4
2019-03-28T00:25:24.459Z,0.4
2019-03-28T00:25:37.237Z,0.2
2019-03-28T00:25:49.013Z,0.3
2019-03-28T00:26:01.815Z,0.3
2019-03-28T00:26:13.598Z,0.2
2019-03-28T00:26:30.290Z,0.2
2019-03-28T00:26:38.190Z,0.2
2019-03-28T00:26:49.948Z,0.2
2019-03-28T00:27:01.760Z,0.3
2019-03-28T00:27:22.244Z,0.3
2019-03-28T00:27:34.012Z,0.2
2019-03-28T00:27:46.239Z,0.2
2019-03-28T00:27:57.607Z,0.2
2019-03-28T00:28:09.396Z,0.2
2019-03-28T00:28:21.184Z,0.2
2019-03-28T00:28:32.999Z,0.3
2019-03-28T00:28:44.751Z,0.3
2019-03-28T00:28:56.531Z,0.3
2019-03-28T00:29:08.324Z,0.1
2019-03-28T00:29:20.097Z,0.3
2019-03-28T00:29:31.878Z,0.3
2019-03-28T00:29:43.665Z,0.4
2019-03-28T00:29:55.507Z,0.3
2019-03-28T00:30:07.291Z,0.4
2019-03-28T00:30:19.231Z,0.4
2019-03-28T00:30:30.883Z,0.7
2019-03-28T00:30:42.665Z,0.7
2019-03-28T00:30:54.440Z,0.7
2019-03-28T00:31:06.261Z,0.3
2019-03-28T00:31:18.019Z,0.2
2019-03-28T00:31:29.833Z,0.1
2019-03-28T00:31:41.633Z,0.1
2019-03-28T00:31:53.460Z,0.1
2019-03-28T00:32:05.266Z,0.1
2019-03-28T00:32:17.081Z,0.2
2019-03-28T00:32:28.903Z,0.2
2019-03-28T00:32:40.693Z,0.3
2019-03-28T00:32:52.535Z,0.1
2019-03-28T00:33:04.296Z,0.6
2019-03-28T00:33:16.081Z,0.6
2019-03-28T00:33:27.897Z,0.3
2019-03-28T00:33:39.680Z,0.3
2019-03-28T00:33:51.465Z,0.3
2019-03-28T00:34:03.251Z,0.3
2019-03-28T00:34:15.082Z,0.3
2019-03-28T00:34:26.855Z,0.3
2019-03-28T00:34:38.626Z,0.3
2019-03-28T00:34:50.389Z,0.4
2019-03-28T00:35:02.144Z,0.4
2019-03-28T00:35:13.936Z,0.5
2019-03-28T00:35:26.188Z,0.2
2019-03-28T00:35:37.479Z,0.2
2019-03-28T00:35:49.239Z,0.2
2019-03-28T00:36:00.985Z,0.4
2019-03-28T00:36:12.782Z,0.4
2019-03-28T00:36:24.597Z,0.2
2019-03-28T00:36:36.377Z,1.4
2019-03-28T00:36:48.127Z,1.4
2019-03-28T00:36:59.894Z,1.3
2019-03-28T00:37:12.658Z,0.1
2019-03-28T00:37:24.472Z,0.1
2019-03-28T00:37:36.268Z,0.2
2019-03-28T00:37:48.053Z,0.4
2019-03-28T00:38:00.138Z,0.4
2019-03-28T00:38:11.605Z,0.3
2019-03-28T00:38:23.416Z,0.3
2019-03-28T00:38:35.222Z,0.2
2019-03-28T00:38:47.003Z,0.2
2019-03-28T00:38:58.808Z,0.2
2019-03-28T00:39:10.596Z,0.1
2019-03-28T00:39:22.364Z,0.3
2019-03-28T00:39:34.138Z,0.2
2019-03-28T00:39:45.895Z,0.2
2019-03-28T00:39:57.708Z,0.1
2019-03-28T00:40:09.524Z,0.2
2019-03-28T00:40:21.306Z,0.1
2019-03-28T00:40:33.048Z,0.2
2019-03-28T00:40:44.851Z,0.2
2019-03-28T00:40:56.595Z,0.2
2019-03-28T00:41:08.398Z,0.1
2019-03-28T00:41:20.222Z,0.1
2019-03-28T00:41:31.932Z,0.1
2019-03-28T00:41:43.730Z,0.4
2019-03-28T00:41:55.492Z,0.5
2019-03-28T00:42:07.311Z,0.2
2019-03-28T00:42:19.133Z,0.3
2019-03-28T00:42:30.946Z,0.4
2019-03-28T00:42:42.808Z,0.5
2019-03-28T00:42:54.620Z,0.5
2019-03-28T00:43:06.381Z,0.2
2019-03-28T00:43:18.168Z,0.1
2019-03-28T00:43:29.965Z,0.2
2019-03-28T00:43:41.754Z,0.2
2019-03-28T00:43:53.682Z,0.1
2019-03-28T00:44:06.148Z,0.4
2019-03-28T00:44:18.059Z,0.4
2019-03-28T00:44:29.819Z,1.5
2019-03-28T00:44:41.608Z,1.2
2019-03-28T00:44:53.406Z,0.2
2019-03-28T00:45:05.217Z,0.4
2019-03-28T00:45:17.008Z,0.3
2019-03-28T00:45:28.967Z,0.6
2019-03-28T00:45:40.776Z,0.6
2019-03-28T00:45:52.554Z,0.5
2019-03-28T00:46:04.368Z,0.1
2019-03-28T00:46:16.192Z,0.1
2019-03-28T00:46:27.960Z,0.1
2019-03-28T00:46:39.762Z,0.2
2019-03-28T00:46:51.543Z,0.2
2019-03-28T00:47:03.478Z,0.2
2019-03-28T00:47:15.284Z,0.2
2019-03-28T00:47:27.046Z,0.1
2019-03-28T00:47:38.806Z,0.2
2019-03-28T00:47:50.611Z,0.2
2019-03-28T00:48:02.413Z,0.4
2019-03-28T00:48:14.202Z,0.5
2019-03-28T00:48:25.976Z,0.4
2019-03-28T00:48:37.775Z,0.2
2019-03-28T00:48:49.552Z,0.2
2019-03-28T00:49:01.342Z,0.2
2019-03-28T00:49:13.114Z,0.2
2019-03-28T00:49:24.924Z,0.4
2019-03-28T00:49:36.703Z,0.4
2019-03-28T00:49:48.453Z,0.4
2019-03-28T00:50:00.380Z,0.3
2019-03-28T00:50:12.026Z,0.3
2019-03-28T00:50:23.776Z,0.2
2019-03-28T00:50:36.581Z,0.2
2019-03-28T00:50:48.360Z,0.2
2019-03-28T00:51:00.240Z,0.2
2019-03-28T00:51:11.951Z,0.3
2019-03-28T00:51:23.719Z,0.2
2019-03-28T00:51:35.504Z,0.5
2019-03-28T00:51:48.289Z,0.6
2019-03-28T00:52:00.024Z,0.6
2019-03-28T00:52:11.855Z,0.1
2019-03-28T00:52:23.630Z,0.8
2019-03-28T00:52:35.415Z,0.8
2019-03-28T00:52:47.211Z,0.8
2019-03-28T00:52:59.007Z,0.2
2019-03-28T00:53:10.778Z,0.2
2019-03-28T00:53:22.523Z,0.1
2019-03-28T00:53:34.325Z,0.3
2019-03-28T00:53:46.124Z,0.3
2019-03-28T00:53:57.866Z,0.1
2019-03-28T00:54:09.723Z,0.1
2019-03-28T00:54:21.491Z,0.2
2019-03-28T00:54:33.309Z,0.1
2019-03-28T00:54:45.103Z,0.2
2019-03-28T00:54:56.943Z,0.3
2019-03-28T00:55:08.734Z,0.5
2019-03-28T00:55:20.501Z,0.4
2019-03-28T00:55:32.309Z,0.2
2019-03-28T00:55:44.420Z,0.1
2019-03-28T00:55:56.228Z,0.3
2019-03-28T00:56:07.996Z,0.2
2019-03-28T00:56:19.810Z,0.2
2019-03-28T00:56:43.629Z,0.9
2019-03-28T00:56:47.234Z,0.9
2019-03-28T00:56:56.071Z,0.4
2019-03-28T00:57:07.897Z,0.5
2019-03-28T00:57:19.705Z,0.3
2019-03-28T00:57:31.535Z,0.4
2019-03-28T00:57:44.075Z,0.4
2019-03-28T00:57:55.095Z,0.6
2019-03-28T00:58:06.884Z,0.4
2019-03-28T00:58:18.664Z,0.4
2019-03-28T00:58:30.428Z,0.2
2019-03-28T00:58:42.215Z,0.2
2019-03-28T00:58:54.018Z,0.1
2019-03-28T00:59:05.785Z,0.1
2019-03-28T00:59:17.556Z,0.1
2019-03-28T00:59:29.379Z,0.1
2019-03-28T00:59:41.189Z,0.1
2019-03-28T00:59:52.938Z,0.1
2019-03-28T01:00:04.687Z,0.3
2019-03-28T01:00:16.503Z,0.3
2019-03-28T01:00:28.297Z,0.3
2019-03-28T01:00:40.207Z,0.2
2019-03-28T01:00:51.857Z,0.1
2019-03-28T01:01:03.692Z,0.2
2019-03-28T01:01:15.446Z,0.2
2019-03-28T01:01:27.259Z,0.2
2019-03-28T01:01:39.038Z,0.2
2019-03-28T01:01:50.804Z,4.1
2019-03-28T01:02:02.595Z,4.2
2019-03-28T01:02:14.375Z,4.2
2019-03-28T01:02:26.181Z,0.2
2019-03-28T01:02:37.935Z,0.2
2019-03-28T01:02:49.726Z,0.3
2019-03-28T01:03:01.538Z,0.2
2019-03-28T01:03:13.333Z,0.3
2019-03-28T01:03:25.142Z,0.3
2019-03-28T01:03:36.886Z,0.3
2019-03-28T01:03:48.639Z,0.2
2019-03-28T01:04:00.402Z,0.1
2019-03-28T01:04:12.212Z,0.1
2019-03-28T01:04:23.965Z,0.2
2019-03-28T01:04:35.762Z,0.2
2019-03-28T01:04:47.540Z,0.1
2019-03-28T01:04:59.345Z,0.3
2019-03-28T01:05:11.107Z,0.3
2019-03-28T01:05:22.888Z,0.6
2019-03-28T01:05:34.667Z,0.6
2019-03-28T01:05:46.419Z,0.6
2019-03-28T01:05:58.248Z,0.3
2019-03-28T01:06:10.068Z,0.3
2019-03-28T01:06:21.839Z,0.1
2019-03-28T01:06:33.622Z,0.1
2019-03-28T01:06:45.393Z,0.1
2019-03-28T01:06:57.241Z,0.1
2019-03-28T01:07:08.980Z,0.2
2019-03-28T01:07:20.764Z,0.4
2019-03-28T01:07:32.514Z,0.3
2019-03-28T01:07:44.291Z,0.3
2019-03-28T01:07:56.108Z,0.2
2019-03-28T01:08:07.884Z,0.1
2019-03-28T01:08:19.744Z,0.1
2019-03-28T01:08:31.529Z,0.1
2019-03-28T01:08:43.341Z,0.1
2019-03-28T01:08:55.131Z,0.1
2019-03-28T01:09:07.929Z,0.2
2019-03-28T01:09:19.931Z,0.2
2019-03-28T01:09:31.797Z,0.1
2019-03-28T01:09:43.624Z,0.2
2019-03-28T01:09:55.574Z,0.3
2019-03-28T01:10:07.443Z,0.3
2019-03-28T01:10:19.217Z,0.3
2019-03-28T01:10:31.141Z,0.1
2019-03-28T01:10:43.074Z,0.3
2019-03-28T01:10:54.791Z,0.5
2019-03-28T01:11:06.612Z,0.5
2019-03-28T01:11:18.523Z,0.3
2019-03-28T01:11:31.025Z,0.3
2019-03-28T01:11:42.825Z,0.3
2019-03-28T01:11:54.656Z,0.3
2019-03-28T01:12:06.437Z,0.4
2019-03-28T01:12:18.272Z,0.5
2019-03-28T01:12:30.126Z,0.3
2019-03-28T01:12:42.017Z,0.2
2019-03-28T01:12:53.835Z,0.2
2019-03-28T01:13:05.682Z,0.2
2019-03-28T01:13:18.077Z,0.4
2019-03-28T01:13:29.326Z,0.3
2019-03-28T01:13:41.138Z,0.1
2019-03-28T01:13:53.037Z,0.1
2019-03-28T01:14:04.919Z,0.2
2019-03-28T01:14:16.737Z,0.1
2019-03-28T01:14:28.512Z,0.3
2019-03-28T01:14:40.395Z,0.5
2019-03-28T01:14:52.218Z,0.6
2019-03-28T01:15:04.042Z,0.6
2019-03-28T01:15:15.942Z,0.3
2019-03-28T01:15:27.802Z,0.3
2019-03-28T01:15:39.642Z,0.4
2019-03-28T01:15:51.442Z,0.4
2019-03-28T01:16:03.315Z,0.4
2019-03-28T01:16:15.117Z,0.4
2019-03-28T01:16:26.903Z,0.2
2019-03-28T01:16:39.389Z,0.2
2019-03-28T01:16:50.725Z,0.1
2019-03-28T01:17:02.520Z,2.2
2019-03-28T01:17:14.518Z,2.3
2019-03-28T01:17:26.295Z,2.2
2019-03-28T01:17:38.106Z,0.2
2019-03-28T01:17:49.926Z,0.1
2019-03-28T01:18:01.726Z,0.2
2019-03-28T01:18:13.541Z,0.1
2019-03-28T01:18:25.422Z,0.2
2019-03-28T01:18:37.345Z,0.1
2019-03-28T01:18:49.217Z,0.1
2019-03-28T01:19:01.037Z,0.2
2019-03-28T01:19:13.018Z,0.1
2019-03-28T01:19:24.808Z,0.2
2019-03-28T01:19:36.624Z,0.2
2019-03-28T01:19:48.456Z,0.4
2019-03-28T01:20:00.619Z,0.4
2019-03-28T01:20:12.294Z,0.3
2019-03-28T01:20:24.155Z,0.2
2019-03-28T01:20:35.986Z,0.4
2019-03-28T01:20:47.786Z,0.4
2019-03-28T01:20:59.649Z,0.4
2019-03-28T01:21:11.506Z,0.4
2019-03-28T01:21:23.390Z,0.4
2019-03-28T01:21:35.171Z,0.1
2019-03-28T01:21:46.964Z,0.2
2019-03-28T01:21:58.884Z,0.1
2019-03-28T01:22:10.666Z,0.2
2019-03-28T01:22:22.466Z,0.2
2019-03-28T01:22:34.284Z,0.2
2019-03-28T01:22:46.036Z,0.2
2019-03-28T01:22:57.824Z,0.2
2019-03-28T01:23:09.626Z,0.2
2019-03-28T01:23:21.446Z,0.2
2019-03-28T01:23:33.210Z,0.2
2019-03-28T01:23:44.985Z,0.3
2019-03-28T01:23:56.769Z,0.3
2019-03-28T01:24:08.529Z,0.1
2019-03-28T01:24:20.289Z,0.2
2019-03-28T01:24:32.108Z,0.3
2019-03-28T01:24:44.012Z,0.3
2019-03-28T01:24:57.754Z,0.3
2019-03-28T01:25:07.650Z,0.3
2019-03-28T01:25:19.432Z,0.2
2019-03-28T01:25:31.191Z,0.2
2019-03-28T01:25:42.991Z,0.1
2019-03-28T01:25:54.744Z,0.2
2019-03-28T01:26:06.549Z,0.2
2019-03-28T01:26:18.485Z,0.2
2019-03-28T01:26:30.143Z,0.2
2019-03-28T01:26:42.568Z,0.2
2019-03-28T01:26:57.365Z,0.2
2019-03-28T01:27:07.618Z,0.3
2019-03-28T01:27:19.835Z,0.9
2019-03-28T01:27:32.165Z,0.9
2019-03-28T01:27:44.015Z,0.9
2019-03-28T01:27:55.802Z,0.3
2019-03-28T01:28:07.597Z,0.2
2019-03-28T01:28:19.409Z,0.1
2019-03-28T01:28:31.247Z,0.1
2019-03-28T01:28:43.131Z,0.2
2019-03-28T01:28:54.941Z,0.2
2019-03-28T01:29:06.733Z,0.2
2019-03-28T01:29:19.466Z,0.3
2019-03-28T01:29:31.379Z,0.6
2019-03-28T01:29:43.344Z,0.5
2019-03-28T01:29:55.229Z,1.3
2019-03-28T01:30:07.956Z,1.5
2019-03-28T01:30:19.724Z,0.4
2019-03-28T01:30:31.806Z,0.2
2019-03-28T01:30:44.986Z,0.2
2019-03-28T01:30:58.425Z,0.2
2019-03-28T01:31:11.377Z,0.2
2019-03-28T01:31:24.021Z,0.2
2019-03-28T01:31:36.487Z,0.2
2019-03-28T01:31:48.837Z,0.2
2019-03-28T01:32:00.917Z,0.2
2019-03-28T01:32:13.688Z,0.2
2019-03-28T01:32:26.073Z,0.2
2019-03-28T01:32:37.953Z,0.2
2019-03-28T01:32:50.042Z,0.3
2019-03-28T01:33:02.121Z,0.2
2019-03-28T01:33:14.089Z,0.4
2019-03-28T01:33:25.954Z,0.4
2019-03-28T01:33:37.889Z,0.3
2019-03-28T01:33:49.760Z,0.2
2019-03-28T01:34:01.655Z,0.1
2019-03-28T01:34:13.593Z,0.2
2019-03-28T01:34:25.494Z,0.3
2019-03-28T01:34:37.337Z,0.4
2019-03-28T01:34:49.171Z,0.4
2019-03-28T01:35:01.022Z,0.4
2019-03-28T01:35:12.900Z,0.3
2019-03-28T01:35:24.761Z,0.7
2019-03-28T01:35:36.962Z,0.5
2019-03-28T01:35:48.884Z,0.4
2019-03-28T01:36:00.726Z,0.1
2019-03-28T01:36:13.098Z,0.5
2019-03-28T01:36:24.541Z,0.5
2019-03-28T01:36:36.404Z,0.3
2019-03-28T01:36:48.355Z,0.3
2019-03-28T01:37:00.169Z,0.5
2019-03-28T01:37:12.003Z,0.5
2019-03-28T01:37:23.890Z,0.2
2019-03-28T01:37:35.980Z,0.2
2019-03-28T01:37:48.145Z,0.1
2019-03-28T01:38:00.318Z,0.1
2019-03-28T01:38:12.814Z,0.2
2019-03-28T01:38:25.084Z,0.1
2019-03-28T01:38:38.961Z,0.2
2019-03-28T01:38:51.097Z,0.2
2019-03-28T01:39:02.968Z,0.2
2019-03-28T01:39:14.897Z,0.2
2019-03-28T01:39:26.742Z,0.2
2019-03-28T01:39:38.019Z,0.2
2019-03-28T01:39:50.343Z,0.2
2019-03-28T01:40:02.644Z,0.3
2019-03-28T01:40:14.764Z,0.4
2019-03-28T01:40:27.959Z,0.2
2019-03-28T01:40:39.916Z,0.2
2019-03-28T01:40:51.820Z,0.2
2019-03-28T01:41:03.703Z,0.1
2019-03-28T01:41:16.216Z,0.3
2019-03-28T01:41:28.187Z,0.3
2019-03-28T01:41:41.319Z,0.3
2019-03-28T01:41:53.580Z,0.2
2019-03-28T01:42:06.354Z,0.2
2019-03-28T01:42:18.397Z,0.2
2019-03-28T01:42:31.116Z,0.2
2019-03-28T01:42:42.323Z,0.2
2019-03-28T01:42:54.837Z,0.3
2019-03-28T01:43:06.760Z,0.3
2019-03-28T01:43:18.665Z,0.3
2019-03-28T01:43:30.558Z,0.3
2019-03-28T01:43:42.471Z,0.2
2019-03-28T01:43:54.287Z,0.1
2019-03-28T01:44:06.232Z,0.2
2019-03-28T01:44:18.160Z,0.3
2019-03-28T01:44:30.184Z,0.3
2019-03-28T01:44:43.165Z,0.2
2019-03-28T01:44:54.973Z,0.2
2019-03-28T01:45:07.311Z,0.5
2019-03-28T01:45:19.193Z,0.4
2019-03-28T01:45:31.396Z,0.2
2019-03-28T01:45:43.245Z,0.2
2019-03-28T01:45:55.128Z,0.2
2019-03-28T01:46:06.997Z,0.1
2019-03-28T01:46:18.887Z,0.2
2019-03-28T01:46:30.790Z,0.3
2019-03-28T01:46:42.647Z,0.6
2019-03-28T01:46:54.603Z,0.5
2019-03-28T01:47:06.536Z,0.7
2019-03-28T01:47:18.382Z,0.4
2019-03-28T01:47:30.211Z,0.3
2019-03-28T01:47:42.266Z,0.2
2019-03-28T01:47:54.121Z,0.2
2019-03-28T01:48:05.990Z,0.1
2019-03-28T01:48:17.870Z,0.2
2019-03-28T01:48:30.304Z,0.2
2019-03-28T01:48:42.418Z,0.2
2019-03-28T01:48:54.363Z,0.1
2019-03-28T01:49:07.231Z,0.4
2019-03-28T01:49:19.130Z,1
2019-03-28T01:49:30.985Z,0.8
2019-03-28T01:49:42.870Z,1
2019-03-28T01:49:54.783Z,0.4
2019-03-28T01:50:06.653Z,0.5
2019-03-28T01:50:18.481Z,0.3
2019-03-28T01:50:30.317Z,0.2
2019-03-28T01:50:42.218Z,0.1
2019-03-28T01:50:54.117Z,0.4
2019-03-28T01:51:06.159Z,0.4
2019-03-28T01:51:17.899Z,0.4
2019-03-28T01:51:29.726Z,0.2
2019-03-28T01:51:41.577Z,0.2
2019-03-28T01:51:53.384Z,0.3
2019-03-28T01:52:06.259Z,0.2
2019-03-28T01:52:18.087Z,0.2
2019-03-28T01:52:29.930Z,0.3
2019-03-28T01:52:41.785Z,0.3
2019-03-28T01:52:53.599Z,0.4
2019-03-28T01:53:05.441Z,0.2
2019-03-28T01:53:17.274Z,0.2
2019-03-28T01:53:29.131Z,0.2
2019-03-28T01:53:40.981Z,0.2
2019-03-28T01:53:52.796Z,0.2
2019-03-28T01:54:04.646Z,0.6
2019-03-28T01:54:16.602Z,1.1
2019-03-28T01:54:29.258Z,1.2
2019-03-28T01:54:41.288Z,0.4
2019-03-28T01:54:53.131Z,0.2
2019-03-28T01:55:05.014Z,0.3
2019-03-28T01:55:16.842Z,0.2
2019-03-28T01:55:28.678Z,0.4
2019-03-28T01:55:40.560Z,0.4
2019-03-28T01:55:52.421Z,0.4
2019-03-28T01:56:04.260Z,0.9
2019-03-28T01:56:16.118Z,0.9
2019-03-28T01:56:28.912Z,1
2019-03-28T01:56:40.731Z,0.2
2019-03-28T01:56:52.573Z,0.3
2019-03-28T01:57:10.617Z,0.3
2019-03-28T01:57:18.220Z,0.3
2019-03-28T01:57:30.049Z,0.2
2019-03-28T01:57:41.947Z,0.3
2019-03-28T01:57:53.757Z,0.8
2019-03-28T01:58:05.558Z,0.7
2019-03-28T01:58:17.343Z,0.2
2019-03-28T01:58:29.114Z,0.1
2019-03-28T01:58:40.926Z,0.1
2019-03-28T01:58:52.742Z,0.4
2019-03-28T01:59:04.514Z,0.4
2019-03-28T01:59:16.306Z,0.3
2019-03-28T01:59:28.111Z,0.2
2019-03-28T01:59:39.898Z,0.4
2019-03-28T01:59:51.715Z,0.4
2019-03-28T02:00:03.481Z,0.3
2019-03-28T02:00:15.277Z,0.2
2019-03-28T02:00:27.092Z,0.3
2019-03-28T02:00:38.948Z,0.4
2019-03-28T02:00:50.667Z,0.5
2019-03-28T02:01:02.923Z,0.4
2019-03-28T02:01:15.215Z,0.4
2019-03-28T02:01:26.983Z,0.3
2019-03-28T02:01:38.759Z,0.4
2019-03-28T02:01:50.539Z,0.3
2019-03-28T02:02:02.305Z,0.2
2019-03-28T02:02:14.089Z,0.6
2019-03-28T02:02:25.882Z,0.6
2019-03-28T02:02:37.646Z,0.6
2019-03-28T02:02:49.448Z,0.2
2019-03-28T02:03:01.245Z,0.1
2019-03-28T02:03:13.040Z,0.2
2019-03-28T02:03:24.813Z,0.2
2019-03-28T02:03:37.151Z,0.2
2019-03-28T02:03:48.380Z,0.2
2019-03-28T02:04:00.146Z,0.2
2019-03-28T02:04:12.078Z,0.2
2019-03-28T02:04:23.854Z,0.3
2019-03-28T02:04:35.635Z,0.4
2019-03-28T02:04:47.418Z,0.4
2019-03-28T02:04:59.265Z,0.2
2019-03-28T02:05:10.998Z,0.2
2019-03-28T02:05:22.768Z,0.2
2019-03-28T02:05:34.575Z,0.2
2019-03-28T02:05:46.326Z,0.6
2019-03-28T02:05:58.118Z,0.6
2019-03-28T02:06:09.929Z,0.6
2019-03-28T02:06:21.706Z,0.3
2019-03-28T02:06:34.176Z,0.3
2019-03-28T02:06:45.236Z,1
2019-03-28T02:06:57.000Z,1
2019-03-28T02:07:08.799Z,0.5
2019-03-28T02:07:20.569Z,0.6
2019-03-28T02:07:32.341Z,0.5
2019-03-28T02:07:44.157Z,0.2
2019-03-28T02:07:55.973Z,0.2
2019-03-28T02:08:07.768Z,0.3
2019-03-28T02:08:19.543Z,0.3
2019-03-28T02:08:31.316Z,0.2
2019-03-28T02:08:43.067Z,0.2
2019-03-28T02:08:54.855Z,0.2
2019-03-28T02:09:06.724Z,0.3
2019-03-28T02:09:18.505Z,0.3
2019-03-28T02:09:30.302Z,0.3
2019-03-28T02:09:42.067Z,0.2
2019-03-28T02:09:53.831Z,0.3
2019-03-28T02:10:05.639Z,0.3
2019-03-28T02:10:17.412Z,0.8
2019-03-28T02:10:29.168Z,0.8
2019-03-28T02:10:40.952Z,0.8
2019-03-28T02:10:52.744Z,0.5
2019-03-28T02:11:04.513Z,0.4
2019-03-28T02:11:16.264Z,0.3
2019-03-28T02:11:28.026Z,0.2
2019-03-28T02:11:40.270Z,0.2
2019-03-28T02:11:51.635Z,0.3
2019-03-28T02:12:03.458Z,0.3
2019-03-28T02:12:15.221Z,0.2
2019-03-28T02:12:27.008Z,0.2
2019-03-28T02:12:38.817Z,0.2
2019-03-28T02:12:50.605Z,0.3
2019-03-28T02:13:02.382Z,0.3
2019-03-28T02:13:14.142Z,0.3
2019-03-28T02:13:25.930Z,0.1
2019-03-28T02:13:37.748Z,0.2
2019-03-28T02:13:49.513Z,0.3
2019-03-28T02:14:01.300Z,0.3
2019-03-28T02:14:13.224Z,0.3
2019-03-28T02:14:25.047Z,0.3
2019-03-28T02:14:36.825Z,0.2
2019-03-28T02:14:48.609Z,0.2
2019-03-28T02:15:00.391Z,0.2
2019-03-28T02:15:12.222Z,0.2
2019-03-28T02:15:23.968Z,0.3
2019-03-28T02:15:35.761Z,0.2
2019-03-28T02:15:47.526Z,0.3
2019-03-28T02:15:59.349Z,0.2
2019-03-28T02:16:11.154Z,0.2
2019-03-28T02:16:22.971Z,0.2
2019-03-28T02:16:34.734Z,0.2
2019-03-28T02:16:47.082Z,0.2
2019-03-28T02:16:58.357Z,0.2
2019-03-28T02:17:10.135Z,0.2
2019-03-28T02:17:21.886Z,0.2
2019-03-28T02:17:33.651Z,0.2
2019-03-28T02:17:45.428Z,0.2
2019-03-28T02:17:57.240Z,0.2
2019-03-28T02:18:09.023Z,0.2
2019-03-28T02:18:20.786Z,0.6
2019-03-28T02:18:32.544Z,0.5
2019-03-28T02:18:44.344Z,0.2
2019-03-28T02:18:56.138Z,0.2
2019-03-28T02:19:07.920Z,0.2
2019-03-28T02:19:19.708Z,0.2
2019-03-28T02:19:31.472Z,0.2
2019-03-28T02:19:43.253Z,0.2
2019-03-28T02:19:55.019Z,0.3
2019-03-28T02:20:06.943Z,0.5
2019-03-28T02:20:18.697Z,0.4
2019-03-28T02:20:30.469Z,0.1
2019-03-28T02:20:42.281Z,0.2
2019-03-28T02:20:54.102Z,0.4
2019-03-28T02:21:06.007Z,0.5
2019-03-28T02:21:17.809Z,0.3
2019-03-28T02:21:29.612Z,0.5
2019-03-28T02:21:41.461Z,0.4
2019-03-28T02:21:53.300Z,3.8
2019-03-28T02:22:05.009Z,3.7
2019-03-28T02:22:16.893Z,3.7
2019-03-28T02:22:28.716Z,0.3
2019-03-28T02:22:40.514Z,0.2
2019-03-28T02:22:52.361Z,0.2
2019-03-28T02:23:04.189Z,0.2
2019-03-28T02:23:15.950Z,0.3
2019-03-28T02:23:27.737Z,0.4
2019-03-28T02:23:39.551Z,0.2
2019-03-28T02:23:51.314Z,0.1
2019-03-28T02:24:03.213Z,0.1
2019-03-28T02:24:14.981Z,0.2
2019-03-28T02:24:26.887Z,0.2
2019-03-28T02:24:38.708Z,0.3
2019-03-28T02:24:52.112Z,0.3
2019-03-28T02:25:03.431Z,0.3
2019-03-28T02:25:15.268Z,0.3
2019-03-28T02:25:27.111Z,0.4
2019-03-28T02:25:38.952Z,0.2
2019-03-28T02:25:50.684Z,0.3
2019-03-28T02:26:02.596Z,0.4
2019-03-28T02:26:14.406Z,0.2
2019-03-28T02:26:26.178Z,0.1
2019-03-28T02:26:37.972Z,0.2
2019-03-28T02:26:49.769Z,0.2
2019-03-28T02:27:01.516Z,0.2
2019-03-28T02:27:23.264Z,0.2
2019-03-28T02:27:26.246Z,0.3
2019-03-28T02:27:37.857Z,0.5
2019-03-28T02:27:49.675Z,0.4
2019-03-28T02:28:01.500Z,0.2
2019-03-28T02:28:13.246Z,0.4
2019-03-28T02:28:25.056Z,0.4
2019-03-28T02:28:36.877Z,0.4
2019-03-28T02:28:48.678Z,0.3
2019-03-28T02:29:00.478Z,0.3
2019-03-28T02:29:12.390Z,0.8
2019-03-28T02:29:24.192Z,0.8
2019-03-28T02:29:35.977Z,0.4
2019-03-28T02:29:47.775Z,0.4
2019-03-28T02:29:59.587Z,0.3
2019-03-28T02:30:11.612Z,0.2
2019-03-28T02:30:23.638Z,0.2
2019-03-28T02:30:36.184Z,0.2
2019-03-28T02:30:48.038Z,0.3
2019-03-28T02:30:59.850Z,0.3
2019-03-28T02:31:11.756Z,0.3
2019-03-28T02:31:23.569Z,0.3
2019-03-28T02:31:35.375Z,0.3
2019-03-28T02:31:48.171Z,0.2
2019-03-28T02:32:00.036Z,0.2
2019-03-28T02:32:11.860Z,0.3
2019-03-28T02:32:23.648Z,0.2
2019-03-28T02:32:35.463Z,0.2
2019-03-28T02:32:47.294Z,0.2
2019-03-28T02:32:59.915Z,0.1
2019-03-28T02:33:11.013Z,0.1
2019-03-28T02:33:22.802Z,0.1
2019-03-28T02:33:34.596Z,0.1
2019-03-28T02:33:46.362Z,0.2
2019-03-28T02:33:58.174Z,0.2
2019-03-28T02:34:10.024Z,0.2
2019-03-28T02:34:21.840Z,0.2
2019-03-28T02:34:33.646Z,0.2
2019-03-28T02:34:48.767Z,0.2
2019-03-28T02:34:57.207Z,0.2
2019-03-28T02:35:09.041Z,0.3
2019-03-28T02:35:20.898Z,0.3
2019-03-28T02:35:32.735Z,0.1
2019-03-28T02:35:44.540Z,0.2
2019-03-28T02:35:56.346Z,0.2
2019-03-28T02:36:08.173Z,0.4
2019-03-28T02:36:20.018Z,0.3
2019-03-28T02:36:31.836Z,0.4
2019-03-28T02:36:43.667Z,0.2
2019-03-28T02:36:55.437Z,0.2
2019-03-28T02:37:07.337Z,0.2
2019-03-28T02:37:19.130Z,0.1
2019-03-28T02:37:31.018Z,0.2
2019-03-28T02:37:42.865Z,0.2
2019-03-28T02:37:54.725Z,0.2
2019-03-28T02:38:06.503Z,0.1
2019-03-28T02:38:18.342Z,0.2
2019-03-28T02:38:30.129Z,0.3
2019-03-28T02:38:41.960Z,0.1
2019-03-28T02:38:53.780Z,0.2
2019-03-28T02:39:05.549Z,0.2
2019-03-28T02:39:17.328Z,0.2
2019-03-28T02:39:29.206Z,0.2
2019-03-28T02:39:40.998Z,0.2
2019-03-28T02:39:52.808Z,0.1
2019-03-28T02:40:04.611Z,0.2
2019-03-28T02:40:16.836Z,0.3
2019-03-28T02:40:28.174Z,0.2
2019-03-28T02:40:39.955Z,0.2
2019-03-28T02:40:51.822Z,0.1
2019-03-28T02:41:03.609Z,0.2
2019-03-28T02:41:15.380Z,0.4
2019-03-28T02:41:27.157Z,0.4
2019-03-28T02:41:39.988Z,0.3
2019-03-28T02:41:51.778Z,0.3
2019-03-28T02:42:03.621Z,0.4
2019-03-28T02:42:15.407Z,0.6
2019-03-28T02:42:27.908Z,0.3
2019-03-28T02:42:39.090Z,0.6
2019-03-28T02:42:50.875Z,0.6
2019-03-28T02:43:02.661Z,0.6
2019-03-28T02:43:14.470Z,0.1
2019-03-28T02:43:26.290Z,0.1
2019-03-28T02:43:38.136Z,0.1
2019-03-28T02:43:50.966Z,0.4